Time;durP1;ratioP1;P1;durP2;ratioP2;P2;SDS_P1;SDS_P2;PMS_P1;PMS_P2;Temp;Humidity;BMP_temperature;BMP_pressure;BME280_temperature;BME280_humidity;BME280_pressure;Samples;Min_cycle;Max_cycle;Signal;HPM_P1;HPM_P2
2022/07/20 00:00:49;;;;;;;;;;;26.50;53.80;;;;;;5040447;28;19917;-70
2022/07/20 00:03:15;;;;;;;;;;;26.50;53.90;;;;;;5022957;28;20483;-70
2022/07/20 00:05:41;;;;;;;;;;;26.40;53.80;;;;;;5029511;28;19966;-69
2022/07/20 00:08:06;;;;;;;;;;;26.40;53.90;;;;;;5022136;28;19920;-69
2022/07/20 00:13:16;;;;;;;;;;;26.30;53.90;;;;;;5022540;28;20336;-69
2022/07/20 00:15:42;;;;;;;;;;;26.30;53.90;;;;;;5021092;28;19913;-69
2022/07/20 00:18:08;;;;;;;;;;;26.30;54.00;;;;;;5026607;28;19948;-69
2022/07/20 00:20:35;;;;;;;;;;;26.30;54.00;;;;;;5022213;28;19914;-69
2022/07/20 00:23:01;;;;;;;;;;;26.20;54.00;;;;;;5021111;28;19947;-69
2022/07/20 00:25:26;;;;;;;;;;;26.20;54.10;;;;;;5021104;28;19950;-69
2022/07/20 00:27:52;;;;;;;;;;;26.10;54.20;;;;;;5033393;28;20113;-69
2022/07/20 00:30:18;;;;;;;;;;;26.10;54.30;;;;;;5021123;28;19963;-69
2022/07/20 00:32:43;;;;;;;;;;;26.10;54.30;;;;;;5020888;28;19925;-69
2022/07/20 00:35:10;;;;;;;;;;;26.00;54.30;;;;;;5020255;28;19913;-69
2022/07/20 00:37:36;;;;;;;;;;;26.00;54.30;;;;;;5020548;28;19917;-69
2022/07/20 00:40:03;;;;;;;;;;;26.00;54.30;;;;;;5033163;28;19916;-69
2022/07/20 00:42:28;;;;;;;;;;;25.90;54.30;;;;;;5022022;28;19913;-69
2022/07/20 00:44:54;;;;;;;;;;;25.90;54.30;;;;;;5036926;28;19970;-69
2022/07/20 00:47:19;;;;;;;;;;;25.90;54.60;;;;;;5038789;28;20376;-69
2022/07/20 00:49:45;;;;;;;;;;;25.80;54.40;;;;;;5040508;28;20668;-69
2022/07/20 00:52:10;;;;;;;;;;;25.80;54.50;;;;;;5036666;28;19921;-69
2022/07/20 00:54:37;;;;;;;;;;;25.80;54.40;;;;;;5040533;28;19922;-69
2022/07/20 00:57:02;;;;;;;;;;;25.70;54.50;;;;;;5022029;28;19909;-69
2022/07/20 00:59:28;;;;;;;;;;;25.70;54.60;;;;;;5040046;28;19920;-69
2022/07/20 01:01:54;;;;;;;;;;;25.70;54.50;;;;;;5040170;28;19913;-69
2022/07/20 01:04:19;;;;;;;;;;;25.70;54.70;;;;;;5038987;28;19912;-69
2022/07/20 01:06:45;;;;;;;;;;;25.60;54.50;;;;;;5021391;28;19914;-69
2022/07/20 01:09:10;;;;;;;;;;;25.60;54.70;;;;;;5021970;28;19922;-69
2022/07/20 01:11:36;;;;;;;;;;;25.60;54.70;;;;;;5022151;28;20012;-69
2022/07/20 01:14:07;;;;;;;;;;;25.50;54.70;;;;;;5032546;28;19917;-69
2022/07/20 01:16:34;;;;;;;;;;;25.50;54.70;;;;;;5039788;28;19976;-69
2022/07/20 01:18:59;;;;;;;;;;;25.40;54.70;;;;;;5024729;28;19914;-69
2022/07/20 01:21:25;;;;;;;;;;;25.40;54.80;;;;;;5021875;28;19977;-69
2022/07/20 01:23:51;;;;;;;;;;;25.40;54.70;;;;;;5021469;28;19921;-69
2022/07/20 01:26:17;;;;;;;;;;;25.40;54.80;;;;;;5021355;28;19939;-69
2022/07/20 01:28:43;;;;;;;;;;;25.30;54.90;;;;;;5033800;28;20007;-69
2022/07/20 01:31:08;;;;;;;;;;;25.30;55.00;;;;;;5039998;28;20024;-69
2022/07/20 01:33:34;;;;;;;;;;;25.30;54.90;;;;;;5038409;28;20052;-69
2022/07/20 01:35:59;;;;;;;;;;;25.20;55.20;;;;;;5029607;28;20035;-69
2022/07/20 01:38:25;;;;;;;;;;;25.20;55.20;;;;;;5027177;28;19912;-69
2022/07/20 01:40:50;;;;;;;;;;;25.20;55.20;;;;;;5030575;28;19972;-69
2022/07/20 01:43:16;;;;;;;;;;;25.10;55.10;;;;;;5025084;28;19920;-69
2022/07/20 01:45:41;;;;;;;;;;;25.10;55.30;;;;;;5038763;28;19920;-69
2022/07/20 01:48:07;;;;;;;;;;;25.10;55.30;;;;;;5043321;28;19952;-69
2022/07/20 01:50:32;;;;;;;;;;;25.00;55.30;;;;;;5043287;28;19913;-69
2022/07/20 01:52:58;;;;;;;;;;;25.00;55.50;;;;;;5043501;28;19952;-69
2022/07/20 01:55:23;;;;;;;;;;;25.00;55.60;;;;;;5021927;28;20571;-69
2022/07/20 01:57:49;;;;;;;;;;;24.90;55.60;;;;;;5024549;28;20333;-69
2022/07/20 02:00:15;;;;;;;;;;;24.90;55.80;;;;;;5024833;28;20011;-69
2022/07/20 02:02:41;;;;;;;;;;;24.90;55.80;;;;;;5030534;28;19927;-69
2022/07/20 02:05:08;;;;;;;;;;;24.80;55.90;;;;;;5023301;28;20362;-69
2022/07/20 02:07:33;;;;;;;;;;;24.80;55.90;;;;;;5042461;28;20024;-69
2022/07/20 02:09:59;;;;;;;;;;;24.80;56.00;;;;;;5036506;28;20617;-69
2022/07/20 02:12:25;;;;;;;;;;;24.70;56.10;;;;;;5024112;28;20307;-69
2022/07/20 02:14:50;;;;;;;;;;;24.70;56.20;;;;;;5024795;28;20446;-69
2022/07/20 02:17:16;;;;;;;;;;;24.70;56.30;;;;;;5024548;28;20657;-69
2022/07/20 02:19:41;;;;;;;;;;;24.60;56.40;;;;;;5011009;28;20382;-69
2022/07/20 02:22:07;;;;;;;;;;;24.50;56.40;;;;;;5021290;28;20288;-69
2022/07/20 02:24:32;;;;;;;;;;;24.50;56.50;;;;;;5024088;28;19913;-69
2022/07/20 02:26:58;;;;;;;;;;;24.50;56.60;;;;;;5022664;28;20061;-69
2022/07/20 02:29:23;;;;;;;;;;;24.50;56.70;;;;;;5023185;28;20369;-69
2022/07/20 02:31:49;;;;;;;;;;;24.40;56.70;;;;;;5023357;28;19920;-69
2022/07/20 02:34:14;;;;;;;;;;;24.40;56.70;;;;;;5021545;28;19920;-69
2022/07/20 02:36:40;;;;;;;;;;;24.40;56.60;;;;;;5019002;28;19921;-69
2022/07/20 02:39:05;;;;;;;;;;;24.30;56.80;;;;;;5039055;28;19921;-69
2022/07/20 02:41:32;;;;;;;;;;;24.40;56.90;;;;;;5024083;28;19917;-69
2022/07/20 02:43:58;;;;;;;;;;;24.30;57.00;;;;;;5024390;28;19958;-69
2022/07/20 02:46:24;;;;;;;;;;;24.30;57.00;;;;;;5023602;28;20469;-69
2022/07/20 02:48:49;;;;;;;;;;;24.30;57.20;;;;;;5039837;28;19913;-69
2022/07/20 02:51:15;;;;;;;;;;;24.30;57.30;;;;;;5023752;28;19913;-69
2022/07/20 02:53:40;;;;;;;;;;;24.20;57.20;;;;;;5023705;28;19921;-69
2022/07/20 02:56:05;;;;;;;;;;;24.20;57.30;;;;;;5024140;28;19913;-69
2022/07/20 02:58:31;;;;;;;;;;;24.20;57.30;;;;;;5024181;28;19914;-69
2022/07/20 03:00:57;;;;;;;;;;;24.10;57.30;;;;;;5024033;28;20054;-69
2022/07/20 03:03:23;;;;;;;;;;;24.10;57.40;;;;;;5005937;28;19909;-69
2022/07/20 03:05:48;;;;;;;;;;;24.10;57.40;;;;;;5027735;28;19917;-68
2022/07/20 03:08:14;;;;;;;;;;;24.10;57.50;;;;;;5041719;28;19912;-68
2022/07/20 03:10:39;;;;;;;;;;;24.00;57.50;;;;;;5030358;28;20399;-67
2022/07/20 03:13:05;;;;;;;;;;;24.00;57.50;;;;;;5023471;28;19917;-68
2022/07/20 03:15:31;;;;;;;;;;;24.00;57.50;;;;;;5023811;28;19983;-67
2022/07/20 03:17:56;;;;;;;;;;;24.00;58.20;;;;;;5023335;28;19914;-67
2022/07/20 03:20:23;;;;;;;;;;;24.00;57.50;;;;;;5005692;28;20028;-67
2022/07/20 03:22:49;;;;;;;;;;;24.00;57.50;;;;;;5023388;28;20380;-68
2022/07/20 03:25:14;;;;;;;;;;;23.90;57.40;;;;;;5023412;28;19913;-68
2022/07/20 03:27:40;;;;;;;;;;;23.90;57.40;;;;;;5022844;28;19987;-68
2022/07/20 03:30:06;;;;;;;;;;;23.90;57.40;;;;;;5038011;28;19924;-68
2022/07/20 03:32:31;;;;;;;;;;;23.90;57.40;;;;;;5023064;28;19913;-67
2022/07/20 03:34:57;;;;;;;;;;;23.90;57.40;;;;;;5023315;28;20289;-68
2022/07/20 03:37:23;;;;;;;;;;;23.90;57.40;;;;;;5022922;28;20486;-68
2022/07/20 03:39:49;;;;;;;;;;;23.80;57.30;;;;;;5033956;28;19920;-68
2022/07/20 03:42:14;;;;;;;;;;;23.80;57.30;;;;;;5035322;28;19920;-68
2022/07/20 03:44:40;;;;;;;;;;;23.80;57.20;;;;;;5022888;28;19953;-68
2022/07/20 03:47:05;;;;;;;;;;;23.80;57.20;;;;;;5027520;28;19928;-68
2022/07/20 03:49:31;;;;;;;;;;;23.80;57.20;;;;;;5041012;28;19920;-67
2022/07/20 03:51:56;;;;;;;;;;;23.80;57.10;;;;;;5039764;28;20834;-67
2022/07/20 03:54:22;;;;;;;;;;;23.80;56.90;;;;;;5040987;28;19912;-67
2022/07/20 03:56:47;;;;;;;;;;;23.80;56.90;;;;;;5022820;28;19919;-67
2022/07/20 03:59:13;;;;;;;;;;;23.80;57.00;;;;;;5041115;28;19985;-67
2022/07/20 04:01:38;;;;;;;;;;;23.80;56.90;;;;;;5040816;28;20572;-67
2022/07/20 04:04:04;;;;;;;;;;;23.80;56.70;;;;;;5039355;28;19913;-67
2022/07/20 04:06:30;;;;;;;;;;;23.80;56.80;;;;;;5022339;28;19957;-67
2022/07/20 04:08:55;;;;;;;;;;;23.80;56.80;;;;;;5022474;28;19958;-67
2022/07/20 04:11:21;;;;;;;;;;;23.80;56.70;;;;;;5022658;28;19913;-68
2022/07/20 04:13:47;;;;;;;;;;;23.80;56.60;;;;;;5022476;28;19909;-67
2022/07/20 04:16:12;;;;;;;;;;;23.80;56.70;;;;;;5022496;28;19924;-67
2022/07/20 04:18:38;;;;;;;;;;;23.80;56.70;;;;;;5022402;28;20687;-67
2022/07/20 04:21:03;;;;;;;;;;;23.80;56.60;;;;;;5022554;28;19913;-68
2022/07/20 04:23:29;;;;;;;;;;;23.80;56.60;;;;;;5035595;28;20615;-68
2022/07/20 04:25:54;;;;;;;;;;;23.80;56.40;;;;;;5031745;28;19917;-67
2022/07/20 04:28:20;;;;;;;;;;;23.80;56.50;;;;;;5004170;28;19917;-67
2022/07/20 04:30:45;;;;;;;;;;;23.80;56.00;;;;;;5022542;28;19914;-67
2022/07/20 04:33:11;;;;;;;;;;;23.80;56.50;;;;;;5004500;28;19921;-68
2022/07/20 04:35:36;;;;;;;;;;;23.80;56.30;;;;;;5026593;28;19924;-67
2022/07/20 04:38:02;;;;;;;;;;;23.80;56.50;;;;;;5021772;28;19913;-67
2022/07/20 04:40:28;;;;;;;;;;;23.90;56.40;;;;;;5026800;28;19920;-68
2022/07/20 04:42:53;;;;;;;;;;;23.90;56.40;;;;;;5022687;28;19913;-67
2022/07/20 04:45:20;;;;;;;;;;;23.90;56.40;;;;;;5022242;28;20096;-68
2022/07/20 04:47:45;;;;;;;;;;;23.90;56.40;;;;;;5022129;28;19913;-67
2022/07/20 04:50:12;;;;;;;;;;;23.90;56.30;;;;;;5004334;28;20560;-68
2022/07/20 04:52:37;;;;;;;;;;;23.90;56.20;;;;;;5022217;28;20472;-67
2022/07/20 04:55:03;;;;;;;;;;;23.90;56.00;;;;;;5022046;28;20030;-68
2022/07/20 04:57:29;;;;;;;;;;;23.90;56.00;;;;;;5021056;28;19945;-67
2022/07/20 04:59:54;;;;;;;;;;;23.90;56.00;;;;;;5022299;28;19917;-67
2022/07/20 05:02:20;;;;;;;;;;;23.90;56.10;;;;;;5023839;28;19996;-68
2022/07/20 05:04:46;;;;;;;;;;;23.90;56.00;;;;;;5025599;28;19913;-67
2022/07/20 05:07:15;;;;;;;;;;;23.90;56.00;;;;;;5024827;28;19913;-68
2022/07/20 05:09:40;;;;;;;;;;;23.90;56.10;;;;;;5025117;28;19999;-67
2022/07/20 05:12:06;;;;;;;;;;;23.90;55.80;;;;;;5025346;28;19921;-68
2022/07/20 05:14:32;;;;;;;;;;;23.90;55.70;;;;;;5027080;28;19909;-68
2022/07/20 05:16:57;;;;;;;;;;;23.90;55.70;;;;;;5043517;28;20007;-68
2022/07/20 05:19:23;;;;;;;;;;;23.90;55.60;;;;;;5043900;28;20025;-67
2022/07/20 05:21:48;;;;;;;;;;;23.90;55.60;;;;;;5043838;28;20050;-67
2022/07/20 05:24:14;;;;;;;;;;;23.90;55.70;;;;;;5043526;28;20305;-68
2022/07/20 05:26:39;;;;;;;;;;;23.90;55.90;;;;;;5043248;28;19917;-67
2022/07/20 05:29:05;;;;;;;;;;;24.00;55.80;;;;;;5043723;28;19913;-68
2022/07/20 05:31:30;;;;;;;;;;;24.00;55.80;;;;;;5043085;28;19921;-68
2022/07/20 05:33:56;;;;;;;;;;;24.00;55.50;;;;;;5025106;28;19921;-68
2022/07/20 05:36:22;;;;;;;;;;;24.00;55.70;;;;;;5032790;28;19913;-68
2022/07/20 05:38:47;;;;;;;;;;;24.00;55.60;;;;;;5039360;28;19913;-68
2022/07/20 05:41:13;;;;;;;;;;;24.00;55.90;;;;;;5025209;28;20443;-68
2022/07/20 05:43:38;;;;;;;;;;;24.00;55.50;;;;;;5007656;28;19955;-68
2022/07/20 05:46:04;;;;;;;;;;;24.00;55.50;;;;;;5024772;28;20322;-68
2022/07/20 05:48:30;;;;;;;;;;;24.00;55.60;;;;;;5040070;28;19921;-67
2022/07/20 05:50:56;;;;;;;;;;;24.10;55.50;;;;;;5024892;28;19917;-67
2022/07/20 05:53:21;;;;;;;;;;;24.10;55.40;;;;;;5024858;28;20223;-67
2022/07/20 05:55:47;;;;;;;;;;;24.10;55.50;;;;;;5024967;28;20729;-67
2022/07/20 05:58:12;;;;;;;;;;;24.10;55.40;;;;;;5024804;28;20388;-67
2022/07/20 06:00:38;;;;;;;;;;;24.10;55.40;;;;;;5024995;28;19913;-67
2022/07/20 06:03:04;;;;;;;;;;;24.10;55.30;;;;;;5024801;28;20431;-67
2022/07/20 06:05:30;;;;;;;;;;;24.10;55.20;;;;;;5028955;28;20329;-67
2022/07/20 06:07:56;;;;;;;;;;;24.20;55.10;;;;;;5014869;28;19924;-67
2022/07/20 06:10:22;;;;;;;;;;;24.20;54.80;;;;;;5034379;28;19913;-67
2022/07/20 06:12:48;;;;;;;;;;;24.20;55.10;;;;;;5025019;28;19940;-68
2022/07/20 06:15:13;;;;;;;;;;;24.20;55.10;;;;;;5024170;28;20369;-67
2022/07/20 06:17:39;;;;;;;;;;;24.30;55.20;;;;;;5024348;28;19938;-67
2022/07/20 06:20:07;;;;;;;;;;;24.30;55.20;;;;;;5024318;28;19920;-67
2022/07/20 06:22:34;;;;;;;;;;;24.30;55.80;;;;;;5006520;28;19909;-67
2022/07/20 06:24:59;;;;;;;;;;;24.30;55.00;;;;;;5024440;28;19913;-67
2022/07/20 06:27:25;;;;;;;;;;;24.30;55.00;;;;;;5023774;28;20061;-67
2022/07/20 06:29:50;;;;;;;;;;;24.30;54.90;;;;;;5032938;28;19989;-67
2022/07/20 06:32:16;;;;;;;;;;;24.30;54.80;;;;;;5006603;28;20009;-67
2022/07/20 06:34:41;;;;;;;;;;;24.30;54.90;;;;;;5024205;28;19918;-67
2022/07/20 06:37:07;;;;;;;;;;;24.30;55.10;;;;;;5023606;28;19938;-67
2022/07/20 06:39:32;;;;;;;;;;;24.30;55.20;;;;;;5035115;28;19909;-68
2022/07/20 06:41:58;;;;;;;;;;;24.30;55.20;;;;;;5023868;28;19917;-67
2022/07/20 06:44:23;;;;;;;;;;;24.40;55.30;;;;;;5023780;28;19913;-67
2022/07/20 06:46:49;;;;;;;;;;;24.40;55.10;;;;;;5024062;28;20330;-67
2022/07/20 06:49:14;;;;;;;;;;;24.40;55.30;;;;;;5024432;28;20647;-67
2022/07/20 06:51:40;;;;;;;;;;;24.40;55.30;;;;;;5039877;27;19913;-67
2022/07/20 06:54:05;;;;;;;;;;;24.50;55.60;;;;;;5036108;28;20278;-67
2022/07/20 06:56:31;;;;;;;;;;;24.40;55.30;;;;;;5023018;28;19921;-67
2022/07/20 06:58:56;;;;;;;;;;;24.50;55.70;;;;;;5042021;28;19960;-67
2022/07/20 07:01:22;;;;;;;;;;;24.50;55.70;;;;;;5037889;28;20490;-67
2022/07/20 07:03:47;;;;;;;;;;;24.50;55.60;;;;;;5023438;28;19979;-67
2022/07/20 07:06:13;;;;;;;;;;;24.50;55.50;;;;;;5023096;28;20503;-67
2022/07/20 07:08:38;;;;;;;;;;;24.50;55.80;;;;;;5023384;28;20373;-67
2022/07/20 07:11:04;;;;;;;;;;;24.50;55.70;;;;;;5023573;28;20639;-67
2022/07/20 07:13:29;;;;;;;;;;;24.50;55.70;;;;;;5023770;28;19990;-67
2022/07/20 07:15:55;;;;;;;;;;;24.50;55.90;;;;;;5023716;28;20012;-67
2022/07/20 07:18:20;;;;;;;;;;;24.50;55.80;;;;;;5023271;28;20568;-67
2022/07/20 07:20:46;;;;;;;;;;;24.60;55.50;;;;;;5023206;28;19921;-67
2022/07/20 07:23:11;;;;;;;;;;;24.60;55.60;;;;;;5023109;28;19986;-67
2022/07/20 07:25:37;;;;;;;;;;;24.60;56.20;;;;;;5022046;28;19917;-67
2022/07/20 07:28:02;;;;;;;;;;;24.60;55.80;;;;;;5023226;28;19913;-67
2022/07/20 07:30:28;;;;;;;;;;;24.60;55.80;;;;;;5023517;28;19909;-67
2022/07/20 07:32:53;;;;;;;;;;;24.70;56.20;;;;;;5022676;28;20373;-67
2022/07/20 07:35:19;;;;;;;;;;;24.70;56.00;;;;;;5023484;28;20418;-67
2022/07/20 07:37:45;;;;;;;;;;;24.70;55.80;;;;;;5005105;28;20020;-68
2022/07/20 07:40:11;;;;;;;;;;;24.70;56.00;;;;;;5031662;28;20066;-67
2022/07/20 07:42:36;;;;;;;;;;;24.70;56.50;;;;;;5023322;28;20376;-67
2022/07/20 07:45:06;;;;;;;;;;;24.80;56.10;;;;;;5022995;28;20603;-67
2022/07/20 07:47:32;;;;;;;;;;;24.80;56.40;;;;;;5023096;28;20383;-67
2022/07/20 07:49:58;;;;;;;;;;;24.80;56.20;;;;;;5005112;28;20377;-67
2022/07/20 07:52:23;;;;;;;;;;;24.90;56.60;;;;;;5038099;28;19924;-67
2022/07/20 07:54:49;;;;;;;;;;;24.90;56.20;;;;;;5036199;28;19950;-67
2022/07/20 07:57:14;;;;;;;;;;;24.90;56.40;;;;;;5022662;28;20584;-67
2022/07/20 07:59:40;;;;;;;;;;;25.00;56.50;;;;;;5028825;28;19927;-67
2022/07/20 08:02:05;;;;;;;;;;;25.00;56.70;;;;;;5022701;28;19924;-67
2022/07/20 08:04:31;;;;;;;;;;;25.00;56.60;;;;;;5022905;28;19924;-67
2022/07/20 08:06:56;;;;;;;;;;;25.10;56.50;;;;;;5022684;28;20652;-67
2022/07/20 08:09:22;;;;;;;;;;;25.10;56.60;;;;;;5022695;28;19967;-67
2022/07/20 08:11:47;;;;;;;;;;;25.10;56.70;;;;;;5035403;28;19912;-67
2022/07/20 08:14:13;;;;;;;;;;;25.10;56.50;;;;;;5041339;28;19981;-67
2022/07/20 08:16:39;;;;;;;;;;;25.10;56.50;;;;;;5041132;28;20392;-67
2022/07/20 08:19:04;;;;;;;;;;;25.10;56.40;;;;;;5022277;28;19914;-67
2022/07/20 08:21:30;;;;;;;;;;;25.20;56.60;;;;;;5022916;28;20613;-67
2022/07/20 08:23:55;;;;;;;;;;;25.20;56.50;;;;;;5022573;28;20114;-67
2022/07/20 08:26:21;;;;;;;;;;;25.30;56.70;;;;;;5021497;28;19977;-67
2022/07/20 08:28:46;;;;;;;;;;;25.30;57.20;;;;;;5022286;28;19955;-67
2022/07/20 08:31:12;;;;;;;;;;;25.40;56.80;;;;;;5022217;28;19913;-67
2022/07/20 08:33:37;;;;;;;;;;;25.40;56.80;;;;;;5021554;28;19913;-67
2022/07/20 08:36:03;;;;;;;;;;;25.40;56.70;;;;;;5014752;28;19913;-67
2022/07/20 08:38:29;;;;;;;;;;;25.50;56.70;;;;;;5020320;28;19913;-68
2022/07/20 08:40:55;;;;;;;;;;;25.50;56.60;;;;;;5021977;28;20404;-67
2022/07/20 08:43:20;;;;;;;;;;;25.50;56.70;;;;;;5022149;28;19921;-67
2022/07/20 08:45:47;;;;;;;;;;;25.50;56.60;;;;;;5021972;28;19921;-67
2022/07/20 08:48:18;;;;;;;;;;;25.60;56.70;;;;;;5020951;28;20078;-67
2022/07/20 08:50:44;;;;;;;;;;;25.60;56.60;;;;;;5040474;28;20273;-67
2022/07/20 08:53:09;;;;;;;;;;;25.60;56.50;;;;;;5040444;28;19913;-67
2022/07/20 08:55:35;;;;;;;;;;;25.60;56.70;;;;;;5040346;28;19920;-67
2022/07/20 08:58:00;;;;;;;;;;;25.60;56.90;;;;;;5022435;28;19945;-67
2022/07/20 09:00:26;;;;;;;;;;;25.60;56.80;;;;;;5022121;28;20200;-67
2022/07/20 09:02:57;;;;;;;;;;;25.70;57.30;;;;;;5022011;28;19919;-68
2022/07/20 09:05:23;;;;;;;;;;;25.70;56.70;;;;;;5021499;28;19913;-67
2022/07/20 09:07:50;;;;;;;;;;;25.80;56.70;;;;;;5021785;28;19966;-67
2022/07/20 09:10:20;;;;;;;;;;;25.80;56.60;;;;;;5003791;28;19928;-67
2022/07/20 09:12:51;;;;;;;;;;;25.80;56.70;;;;;;5028041;28;20356;-67
2022/07/20 09:15:28;;;;;;;;;;;25.90;56.50;;;;;;5019361;28;20513;-67
2022/07/20 09:18:13;;;;;;;;;;;25.90;56.90;;;;;;5021563;28;19913;-67
2022/07/20 09:20:43;;;;;;;;;;;26.00;56.50;;;;;;5021747;28;19913;-67
2022/07/20 09:23:10;;;;;;;;;;;26.00;56.40;;;;;;5021841;28;19913;-67
2022/07/20 09:25:35;;;;;;;;;;;26.10;56.40;;;;;;5021713;28;19948;-67
2022/07/20 09:28:01;;;;;;;;;;;26.10;56.80;;;;;;5034425;28;20015;-67
2022/07/20 09:30:26;;;;;;;;;;;26.10;56.30;;;;;;5040598;28;20467;-67
2022/07/20 09:32:55;;;;;;;;;;;26.10;56.20;;;;;;5039951;28;19909;-67
2022/07/20 09:35:21;;;;;;;;;;;26.20;56.50;;;;;;5032405;28;20281;-67
2022/07/20 09:37:47;;;;;;;;;;;26.20;56.00;;;;;;5023662;28;20448;-67
2022/07/20 09:40:12;;;;;;;;;;;26.30;56.40;;;;;;5040446;28;19996;-67
2022/07/20 09:42:39;;;;;;;;;;;26.40;56.20;;;;;;5008526;28;19917;-68
2022/07/20 09:45:18;;;;;;;;;;;26.40;56.30;;;;;;5016608;28;19921;-67
2022/07/20 09:48:02;;;;;;;;;;;26.40;56.40;;;;;;5018286;28;19917;-68
2022/07/20 09:50:29;;;;;;;;;;;26.40;56.10;;;;;;5024701;28;20391;-67
2022/07/20 09:52:55;;;;;;;;;;;26.50;55.90;;;;;;5025081;28;19921;-67
2022/07/20 09:55:20;;;;;;;;;;;26.50;56.00;;;;;;5025132;28;19917;-67
2022/07/20 09:57:46;;;;;;;;;;;26.50;55.80;;;;;;5034753;28;19952;-67
2022/07/20 10:00:12;;;;;;;;;;;26.60;55.90;;;;;;5043147;28;20015;-67
2022/07/20 10:02:38;;;;;;;;;;;26.70;55.70;;;;;;5042826;28;19913;-67
2022/07/20 10:05:04;;;;;;;;;;;26.70;55.80;;;;;;5037248;28;19913;-67
2022/07/20 10:07:30;;;;;;;;;;;26.80;55.70;;;;;;5006671;28;20035;-67
2022/07/20 10:09:56;;;;;;;;;;;26.90;55.60;;;;;;5024840;28;19919;-67
2022/07/20 10:12:22;;;;;;;;;;;26.90;55.60;;;;;;5024653;28;19957;-68
2022/07/20 10:14:49;;;;;;;;;;;27.00;55.60;;;;;;5024607;28;20427;-67
2022/07/20 10:17:15;;;;;;;;;;;27.00;55.50;;;;;;5024059;28;20316;-67
2022/07/20 10:19:42;;;;;;;;;;;27.10;55.50;;;;;;5024213;28;20449;-67
2022/07/20 10:22:11;;;;;;;;;;;27.10;55.40;;;;;;5024031;28;19913;-67
2022/07/20 10:24:38;;;;;;;;;;;27.20;55.40;;;;;;5026123;28;19917;-67
2022/07/20 10:27:13;;;;;;;;;;;27.30;55.40;;;;;;5024173;28;19924;-67
2022/07/20 10:29:40;;;;;;;;;;;27.30;55.40;;;;;;5023763;28;19916;-67
2022/07/20 10:32:08;;;;;;;;;;;27.40;55.30;;;;;;5043192;28;19913;-67
2022/07/20 10:34:34;;;;;;;;;;;27.50;55.30;;;;;;5040395;28;19913;-67
2022/07/20 10:37:18;;;;;;;;;;;27.60;55.40;;;;;;5024074;28;19920;-68
2022/07/20 10:39:45;;;;;;;;;;;27.60;55.20;;;;;;5024132;28;20531;-67
2022/07/20 10:42:23;;;;;;;;;;;27.70;55.20;;;;;;5024300;28;20733;-67
2022/07/20 10:44:49;;;;;;;;;;;27.80;55.40;;;;;;5037583;28;20522;-67
2022/07/20 10:47:33;;;;;;;;;;;27.80;55.20;;;;;;5023398;28;19917;-68
2022/07/20 10:50:00;;;;;;;;;;;27.90;55.10;;;;;;5023914;28;20065;-68
2022/07/20 10:52:30;;;;;;;;;;;28.00;55.10;;;;;;5024034;28;19913;-68
2022/07/20 10:54:56;;;;;;;;;;;28.10;55.20;;;;;;5026002;28;19952;-67
2022/07/20 10:57:21;;;;;;;;;;;28.20;55.20;;;;;;5027082;28;19963;-67
2022/07/20 10:59:59;;;;;;;;;;;28.20;55.10;;;;;;5023437;28;20421;-67
2022/07/20 11:02:24;;;;;;;;;;;28.40;55.00;;;;;;5005979;28;19962;-67
2022/07/20 11:04:50;;;;;;;;;;;28.40;55.00;;;;;;5023368;28;19921;-67
2022/07/20 11:07:31;;;;;;;;;;;28.50;54.90;;;;;;5023464;28;19917;-68
2022/07/20 11:09:58;;;;;;;;;;;28.60;55.10;;;;;;5023503;28;20029;-67
2022/07/20 11:12:28;;;;;;;;;;;28.70;55.00;;;;;;5027260;28;20020;-67
2022/07/20 11:14:54;;;;;;;;;;;28.80;55.00;;;;;;5024952;28;19917;-67
2022/07/20 11:17:20;;;;;;;;;;;28.90;55.10;;;;;;5027563;28;19927;-67
2022/07/20 11:19:45;;;;;;;;;;;28.90;55.00;;;;;;5041638;28;19916;-67
2022/07/20 11:22:11;;;;;;;;;;;29.00;55.00;;;;;;5041425;28;19924;-67
2022/07/20 11:24:37;;;;;;;;;;;29.10;54.90;;;;;;5026885;28;19917;-67
2022/07/20 11:27:14;;;;;;;;;;;29.20;54.90;;;;;;5022711;28;20312;-67
2022/07/20 11:29:51;;;;;;;;;;;29.20;54.90;;;;;;5022581;28;19940;-67
2022/07/20 11:32:17;;;;;;;;;;;29.30;55.00;;;;;;5021312;28;19916;-67
2022/07/20 11:34:46;;;;;;;;;;;29.40;55.00;;;;;;5021580;28;20623;-68
2022/07/20 11:37:13;;;;;;;;;;;29.50;54.50;;;;;;5020652;28;19917;-67
2022/07/20 11:39:39;;;;;;;;;;;29.50;54.80;;;;;;5034921;28;19920;-67
2022/07/20 11:42:12;;;;;;;;;;;29.60;54.80;;;;;;5041629;28;19913;-67
2022/07/20 11:44:37;;;;;;;;;;;29.70;54.80;;;;;;5020826;28;19977;-67
2022/07/20 11:47:03;;;;;;;;;;;29.70;54.60;;;;;;5021905;28;19925;-67
2022/07/20 11:49:28;;;;;;;;;;;29.80;54.50;;;;;;5004303;28;19913;-67
2022/07/20 11:51:55;;;;;;;;;;;29.90;55.20;;;;;;5021323;28;19917;-68
2022/07/20 11:54:22;;;;;;;;;;;29.90;54.30;;;;;;5018242;28;19925;-67
2022/07/20 11:56:47;;;;;;;;;;;29.90;54.30;;;;;;5023664;28;19965;-67
2022/07/20 11:59:13;;;;;;;;;;;30.00;55.20;;;;;;5021097;28;20445;-68
2022/07/20 12:01:38;;;;;;;;;;;30.10;54.80;;;;;;5022462;28;19924;-67
2022/07/20 12:04:05;;;;;;;;;;;30.10;54.80;;;;;;5021965;28;19914;-68
2022/07/20 12:06:32;;;;;;;;;;;30.10;54.70;;;;;;5021968;28;19977;-68
2022/07/20 12:09:04;;;;;;;;;;;30.20;54.90;;;;;;5021867;28;19913;-67
2022/07/20 12:11:29;;;;;;;;;;;30.30;55.20;;;;;;5021245;28;19913;-67
2022/07/20 12:13:55;;;;;;;;;;;30.30;54.70;;;;;;5022347;28;20345;-67
2022/07/20 12:16:20;;;;;;;;;;;30.40;54.30;;;;;;5021118;28;20673;-67
2022/07/20 12:18:47;;;;;;;;;;;30.40;54.30;;;;;;5020943;28;19913;-67
2022/07/20 12:21:14;;;;;;;;;;;30.50;54.40;;;;;;5021163;28;19921;-67
2022/07/20 12:23:41;;;;;;;;;;;30.50;54.80;;;;;;5021228;28;19919;-68
2022/07/20 12:26:25;;;;;;;;;;;30.50;54.80;;;;;;5021103;28;19921;-67
2022/07/20 12:28:52;;;;;;;;;;;30.60;54.60;;;;;;5020972;28;19917;-67
2022/07/20 12:31:19;;;;;;;;;;;30.60;54.70;;;;;;5021634;28;19920;-67
2022/07/20 12:33:59;;;;;;;;;;;30.70;55.10;;;;;;5021012;28;19958;-67
2022/07/20 12:36:31;;;;;;;;;;;30.70;54.80;;;;;;5021329;28;19940;-67
2022/07/20 12:38:57;;;;;;;;;;;30.80;54.70;;;;;;5030934;28;19913;-67
2022/07/20 12:41:22;;;;;;;;;;;30.90;54.90;;;;;;5039880;28;19912;-67
2022/07/20 12:43:48;;;;;;;;;;;30.90;54.70;;;;;;5032782;28;20384;-68
2022/07/20 12:46:13;;;;;;;;;;;31.00;54.70;;;;;;5020734;28;19945;-68
2022/07/20 12:48:44;;;;;;;;;;;31.00;54.60;;;;;;5003253;28;19921;-67
2022/07/20 12:51:11;;;;;;;;;;;31.00;54.50;;;;;;5021301;28;19921;-67
2022/07/20 12:53:37;;;;;;;;;;;31.10;54.70;;;;;;5021002;28;19932;-67
2022/07/20 12:56:04;;;;;;;;;;;31.10;54.50;;;;;;5021965;28;20634;-67
2022/07/20 12:58:29;;;;;;;;;;;31.20;54.20;;;;;;5021558;28;19913;-67
2022/07/20 13:00:55;;;;;;;;;;;31.30;54.70;;;;;;5022208;28;19920;-68
2022/07/20 13:03:21;;;;;;;;;;;31.30;55.00;;;;;;5023578;28;19924;-68
2022/07/20 13:05:46;;;;;;;;;;;31.30;54.70;;;;;;5028452;28;20338;-68
2022/07/20 13:08:12;;;;;;;;;;;31.40;54.60;;;;;;5021806;28;19921;-68
2022/07/20 13:10:38;;;;;;;;;;;31.40;54.60;;;;;;5022086;28;19913;-68
2022/07/20 13:13:03;;;;;;;;;;;31.40;54.90;;;;;;5021925;28;19993;-68
2022/07/20 13:15:29;;;;;;;;;;;31.40;54.80;;;;;;5021463;28;19982;-68
2022/07/20 13:17:54;;;;;;;;;;;31.50;54.60;;;;;;5021294;28;20378;-68
2022/07/20 13:20:20;;;;;;;;;;;31.60;54.80;;;;;;5004013;28;19977;-68
2022/07/20 13:22:45;;;;;;;;;;;31.60;54.20;;;;;;5022032;28;19974;-68
2022/07/20 13:25:11;;;;;;;;;;;31.60;53.80;;;;;;5028557;28;19928;-68
2022/07/20 13:27:37;;;;;;;;;;;31.60;54.30;;;;;;5031239;28;20027;-68
2022/07/20 13:30:03;;;;;;;;;;;31.70;54.70;;;;;;5043362;28;20711;-67
2022/07/20 13:32:29;;;;;;;;;;;31.70;54.50;;;;;;5043550;28;20004;-68
2022/07/20 13:34:54;;;;;;;;;;;31.70;54.40;;;;;;5029826;28;20019;-68
2022/07/20 13:37:20;;;;;;;;;;;31.80;54.10;;;;;;5039180;28;19917;-68
2022/07/20 13:39:45;;;;;;;;;;;31.80;54.20;;;;;;5037241;28;20011;-68
2022/07/20 13:42:11;;;;;;;;;;;31.80;53.50;;;;;;5025484;28;19973;-68
2022/07/20 13:44:38;;;;;;;;;;;31.90;53.70;;;;;;5024484;28;20355;-67
2022/07/20 13:47:03;;;;;;;;;;;31.90;54.30;;;;;;5024447;28;19917;-68
2022/07/20 13:49:29;;;;;;;;;;;32.00;54.00;;;;;;5024948;28;19920;-68
2022/07/20 13:51:54;;;;;;;;;;;32.00;53.80;;;;;;5024101;28;19995;-67
2022/07/20 13:54:20;;;;;;;;;;;32.10;54.20;;;;;;5023485;28;20023;-68
2022/07/20 13:56:46;;;;;;;;;;;32.10;53.90;;;;;;5022980;28;19913;-67
2022/07/20 13:59:11;;;;;;;;;;;32.20;53.70;;;;;;5024020;28;20619;-67
2022/07/20 14:01:43;;;;;;;;;;;32.20;53.60;;;;;;5023823;28;19928;-67
2022/07/20 14:04:15;;;;;;;;;;;32.30;53.80;;;;;;5024037;28;19972;-67
2022/07/20 14:06:41;;;;;;;;;;;32.40;53.60;;;;;;5023169;28;20173;-67
2022/07/20 14:09:07;;;;;;;;;;;32.40;53.50;;;;;;5023573;28;20913;-68
2022/07/20 14:11:32;;;;;;;;;;;32.40;53.40;;;;;;5026726;28;19952;-68
2022/07/20 14:13:58;;;;;;;;;;;32.50;53.20;;;;;;5041859;27;20286;-67